sensor_id;sensor_type;location;lat;lon;timestamp;P1;durP1;ratioP1;P2;durP2;ratioP2
51764;SDS011;37835;53.256;6.456;2023-06-01T00:00:32;19.20;;;5.53;;
51764;SDS011;37835;53.256;6.456;2023-06-01T00:02:58;10.63;;;4.55;;
51764;SDS011;37835;53.256;6.456;2023-06-01T00:05:24;11.75;;;5.38;;
51764;SDS011;37835;53.256;6.456;2023-06-01T00:07:49;13.35;;;4.80;;
51764;SDS011;37835;53.256;6.456;2023-06-01T00:10:15;13.85;;;4.88;;
51764;SDS011;37835;53.256;6.456;2023-06-01T00:12:41;14.13;;;4.90;;
51764;SDS011;37835;53.256;6.456;2023-06-01T00:15:08;16.90;;;4.88;;
51764;SDS011;37835;53.256;6.456;2023-06-01T00:17:34;12.18;;;4.45;;
51764;SDS011;37835;53.256;6.456;2023-06-01T00:19:59;14.10;;;4.78;;
51764;SDS011;37835;53.256;6.456;2023-06-01T00:22:26;16.40;;;4.75;;
51764;SDS011;37835;53.256;6.456;2023-06-01T00:24:54;14.52;;;5.18;;
51764;SDS011;37835;53.256;6.456;2023-06-01T00:27:20;14.25;;;5.20;;
51764;SDS011;37835;53.256;6.456;2023-06-01T00:29:45;10.25;;;4.65;;
51764;SDS011;37835;53.256;6.456;2023-06-01T00:32:11;14.10;;;5.90;;
51764;SDS011;37835;53.256;6.456;2023-06-01T00:34:36;14.75;;;5.82;;
51764;SDS011;37835;53.256;6.456;2023-06-01T00:37:02;16.02;;;5.82;;
51764;SDS011;37835;53.256;6.456;2023-06-01T00:39:28;14.35;;;5.82;;
51764;SDS011;37835;53.256;6.456;2023-06-01T00:41:53;17.10;;;5.82;;
51764;SDS011;37835;53.256;6.456;2023-06-01T00:44:19;14.50;;;5.40;;
51764;SDS011;37835;53.256;6.456;2023-06-01T00:46:44;10.90;;;4.80;;
51764;SDS011;37835;53.256;6.456;2023-06-01T00:49:10;15.48;;;5.90;;
51764;SDS011;37835;53.256;6.456;2023-06-01T00:51:36;16.50;;;5.82;;
51764;SDS011;37835;53.256;6.456;2023-06-01T00:54:02;14.43;;;5.85;;
51764;SDS011;37835;53.256;6.456;2023-06-01T00:56:28;13.88;;;5.82;;
51764;SDS011;37835;53.256;6.456;2023-06-01T00:58:56;19.92;;;7.18;;
51764;SDS011;37835;53.256;6.456;2023-06-01T01:01:22;17.17;;;6.15;;
51764;SDS011;37835;53.256;6.456;2023-06-01T01:03:49;12.82;;;5.55;;
51764;SDS011;37835;53.256;6.456;2023-06-01T01:06:39;18.17;;;6.45;;
51764;SDS011;37835;53.256;6.456;2023-06-01T01:09:22;12.85;;;6.13;;
51764;SDS011;37835;53.256;6.456;2023-06-01T01:12:14;15.85;;;5.85;;
51764;SDS011;37835;53.256;6.456;2023-06-01T01:14:48;12.50;;;5.90;;
51764;SDS011;37835;53.256;6.456;2023-06-01T01:17:33;12.00;;;5.22;;
51764;SDS011;37835;53.256;6.456;2023-06-01T01:20:10;11.32;;;5.10;;
51764;SDS011;37835;53.256;6.456;2023-06-01T01:28:42;15.65;;;5.32;;
51764;SDS011;37835;53.256;6.456;2023-06-01T01:31:23;13.43;;;4.93;;
51764;SDS011;37835;53.256;6.456;2023-06-01T01:33:50;7.53;;;4.70;;
51764;SDS011;37835;53.256;6.456;2023-06-01T01:36:18;13.85;;;4.40;;
51764;SDS011;37835;53.256;6.456;2023-06-01T01:38:44;9.52;;;4.82;;
51764;SDS011;37835;53.256;6.456;2023-06-01T01:41:09;9.98;;;4.55;;
51764;SDS011;37835;53.256;6.456;2023-06-01T01:43:35;16.58;;;4.88;;
51764;SDS011;37835;53.256;6.456;2023-06-01T01:54:25;14.07;;;4.50;;
51764;SDS011;37835;53.256;6.456;2023-06-01T01:56:53;11.95;;;4.70;;
51764;SDS011;37835;53.256;6.456;2023-06-01T01:59:22;9.85;;;4.07;;
51764;SDS011;37835;53.256;6.456;2023-06-01T02:01:48;10.18;;;3.95;;
51764;SDS011;37835;53.256;6.456;2023-06-01T02:04:14;10.82;;;3.80;;
51764;SDS011;37835;53.256;6.456;2023-06-01T02:06:40;13.27;;;3.78;;
51764;SDS011;37835;53.256;6.456;2023-06-01T02:09:05;11.70;;;3.30;;
51764;SDS011;37835;53.256;6.456;2023-06-01T02:11:32;8.73;;;3.13;;
51764;SDS011;37835;53.256;6.456;2023-06-01T02:13:59;11.23;;;3.60;;
51764;SDS011;37835;53.256;6.456;2023-06-01T02:16:25;7.97;;;3.10;;
51764;SDS011;37835;53.256;6.456;2023-06-01T02:18:50;10.90;;;3.17;;
51764;SDS011;37835;53.256;6.456;2023-06-01T02:21:16;8.63;;;3.25;;
51764;SDS011;37835;53.256;6.456;2023-06-01T02:23:42;10.57;;;3.25;;
51764;SDS011;37835;53.256;6.456;2023-06-01T02:26:08;12.15;;;3.30;;
51764;SDS011;37835;53.256;6.456;2023-06-01T02:28:36;10.25;;;3.22;;
51764;SDS011;37835;53.256;6.456;2023-06-01T02:31:06;11.13;;;3.95;;
51764;SDS011;37835;53.256;6.456;2023-06-01T02:33:32;11.23;;;3.22;;
51764;SDS011;37835;53.256;6.456;2023-06-01T02:35:58;10.48;;;3.83;;
51764;SDS011;37835;53.256;6.456;2023-06-01T02:38:24;12.05;;;3.60;;
51764;SDS011;37835;53.256;6.456;2023-06-01T02:40:50;10.10;;;3.60;;
51764;SDS011;37835;53.256;6.456;2023-06-01T02:43:15;12.50;;;3.58;;
51764;SDS011;37835;53.256;6.456;2023-06-01T02:45:41;10.73;;;4.53;;
51764;SDS011;37835;53.256;6.456;2023-06-01T02:48:06;11.65;;;3.67;;
51764;SDS011;37835;53.256;6.456;2023-06-01T02:50:32;8.45;;;3.67;;
51764;SDS011;37835;53.256;6.456;2023-06-01T02:52:58;14.50;;;4.50;;
51764;SDS011;37835;53.256;6.456;2023-06-01T02:55:23;12.88;;;4.22;;
51764;SDS011;37835;53.256;6.456;2023-06-01T02:57:49;13.85;;;4.32;;
51764;SDS011;37835;53.256;6.456;2023-06-01T03:00:14;14.85;;;3.90;;
51764;SDS011;37835;53.256;6.456;2023-06-01T03:02:43;9.07;;;4.57;;
51764;SDS011;37835;53.256;6.456;2023-06-01T03:05:12;13.02;;;4.07;;
51764;SDS011;37835;53.256;6.456;2023-06-01T03:07:39;12.10;;;4.20;;
51764;SDS011;37835;53.256;6.456;2023-06-01T03:10:05;17.08;;;4.03;;
51764;SDS011;37835;53.256;6.456;2023-06-01T03:12:32;16.88;;;3.92;;
51764;SDS011;37835;53.256;6.456;2023-06-01T03:14:57;14.88;;;5.25;;
51764;SDS011;37835;53.256;6.456;2023-06-01T03:17:23;13.45;;;4.53;;
51764;SDS011;37835;53.256;6.456;2023-06-01T03:19:48;20.30;;;4.88;;
51764;SDS011;37835;53.256;6.456;2023-06-01T03:22:14;14.30;;;4.05;;
51764;SDS011;37835;53.256;6.456;2023-06-01T03:24:39;16.10;;;4.63;;
51764;SDS011;37835;53.256;6.456;2023-06-01T03:27:06;9.30;;;3.65;;
51764;SDS011;37835;53.256;6.456;2023-06-01T03:29:32;9.35;;;4.80;;
51764;SDS011;37835;53.256;6.456;2023-06-01T03:31:58;11.18;;;4.15;;
51764;SDS011;37835;53.256;6.456;2023-06-01T03:34:24;11.40;;;4.40;;
51764;SDS011;37835;53.256;6.456;2023-06-01T03:36:52;14.20;;;4.05;;
51764;SDS011;37835;53.256;6.456;2023-06-01T03:39:18;14.30;;;4.72;;
51764;SDS011;37835;53.256;6.456;2023-06-01T03:41:44;10.73;;;4.60;;
51764;SDS011;37835;53.256;6.456;2023-06-01T03:44:10;16.30;;;4.85;;
51764;SDS011;37835;53.256;6.456;2023-06-01T03:46:36;9.23;;;4.50;;
51764;SDS011;37835;53.256;6.456;2023-06-01T03:49:02;13.57;;;4.57;;
51764;SDS011;37835;53.256;6.456;2023-06-01T03:51:27;14.25;;;4.57;;
51764;SDS011;37835;53.256;6.456;2023-06-01T03:53:53;11.40;;;4.60;;
51764;SDS011;37835;53.256;6.456;2023-06-01T03:56:19;12.95;;;5.65;;
51764;SDS011;37835;53.256;6.456;2023-06-01T03:58:45;13.63;;;5.38;;
51764;SDS011;37835;53.256;6.456;2023-06-01T04:01:11;13.35;;;4.63;;
51764;SDS011;37835;53.256;6.456;2023-06-01T04:03:42;11.32;;;4.78;;
51764;SDS011;37835;53.256;6.456;2023-06-01T04:06:09;13.80;;;4.90;;
51764;SDS011;37835;53.256;6.456;2023-06-01T04:08:39;10.70;;;4.40;;
51764;SDS011;37835;53.256;6.456;2023-06-01T04:11:13;16.20;;;5.50;;
51764;SDS011;37835;53.256;6.456;2023-06-01T04:13:42;13.90;;;5.07;;
51764;SDS011;37835;53.256;6.456;2023-06-01T04:16:09;10.05;;;4.00;;
51764;SDS011;37835;53.256;6.456;2023-06-01T04:18:34;11.70;;;4.63;;
51764;SDS011;37835;53.256;6.456;2023-06-01T04:21:00;8.25;;;3.63;;
51764;SDS011;37835;53.256;6.456;2023-06-01T04:23:26;12.07;;;4.28;;
51764;SDS011;37835;53.256;6.456;2023-06-01T04:25:51;15.10;;;3.50;;
51764;SDS011;37835;53.256;6.456;2023-06-01T04:28:18;12.52;;;3.45;;
51764;SDS011;37835;53.256;6.456;2023-06-01T04:30:43;13.48;;;3.50;;
51764;SDS011;37835;53.256;6.456;2023-06-01T04:33:09;18.67;;;4.00;;
51764;SDS011;37835;53.256;6.456;2023-06-01T04:35:35;12.15;;;4.05;;
51764;SDS011;37835;53.256;6.456;2023-06-01T04:38:02;15.30;;;4.10;;
51764;SDS011;37835;53.256;6.456;2023-06-01T04:40:27;8.85;;;3.47;;
51764;SDS011;37835;53.256;6.456;2023-06-01T04:42:53;8.88;;;3.30;;
51764;SDS011;37835;53.256;6.456;2023-06-01T04:45:21;9.85;;;3.45;;
51764;SDS011;37835;53.256;6.456;2023-06-01T04:47:48;15.43;;;3.60;;
51764;SDS011;37835;53.256;6.456;2023-06-01T04:50:14;9.85;;;3.80;;
51764;SDS011;37835;53.256;6.456;2023-06-01T04:52:41;12.52;;;4.20;;
51764;SDS011;37835;53.256;6.456;2023-06-01T04:55:08;10.55;;;4.18;;
51764;SDS011;37835;53.256;6.456;2023-06-01T04:57:35;17.83;;;4.13;;
51764;SDS011;37835;53.256;6.456;2023-06-01T05:00:05;9.10;;;3.97;;
51764;SDS011;37835;53.256;6.456;2023-06-01T05:02:38;10.57;;;4.10;;
51764;SDS011;37835;53.256;6.456;2023-06-01T05:05:05;7.60;;;4.00;;
51764;SDS011;37835;53.256;6.456;2023-06-01T05:07:32;10.90;;;3.90;;
51764;SDS011;37835;53.256;6.456;2023-06-01T05:09:58;7.97;;;3.90;;
51764;SDS011;37835;53.256;6.456;2023-06-01T05:12:29;16.05;;;4.00;;
51764;SDS011;37835;53.256;6.456;2023-06-01T05:14:54;8.40;;;4.07;;
51764;SDS011;37835;53.256;6.456;2023-06-01T05:17:20;10.68;;;4.28;;
51764;SDS011;37835;53.256;6.456;2023-06-01T05:19:45;11.95;;;5.25;;
51764;SDS011;37835;53.256;6.456;2023-06-01T05:22:11;14.70;;;5.20;;
51764;SDS011;37835;53.256;6.456;2023-06-01T05:24:37;16.15;;;3.90;;
51764;SDS011;37835;53.256;6.456;2023-06-01T05:27:02;12.13;;;4.05;;
51764;SDS011;37835;53.256;6.456;2023-06-01T05:29:28;16.40;;;4.55;;
51764;SDS011;37835;53.256;6.456;2023-06-01T05:31:54;10.57;;;4.60;;
51764;SDS011;37835;53.256;6.456;2023-06-01T05:34:20;10.35;;;4.53;;
51764;SDS011;37835;53.256;6.456;2023-06-01T05:36:46;14.50;;;5.03;;
51764;SDS011;37835;53.256;6.456;2023-06-01T05:39:11;9.43;;;4.30;;
51764;SDS011;37835;53.256;6.456;2023-06-01T05:41:37;9.65;;;3.90;;
51764;SDS011;37835;53.256;6.456;2023-06-01T05:44:07;9.93;;;4.00;;
51764;SDS011;37835;53.256;6.456;2023-06-01T05:46:32;7.70;;;3.58;;
51764;SDS011;37835;53.256;6.456;2023-06-01T05:48:58;10.52;;;3.38;;
51764;SDS011;37835;53.256;6.456;2023-06-01T05:51:24;11.18;;;3.50;;
51764;SDS011;37835;53.256;6.456;2023-06-01T05:53:50;10.23;;;3.20;;
51764;SDS011;37835;53.256;6.456;2023-06-01T05:56:15;10.05;;;3.30;;
51764;SDS011;37835;53.256;6.456;2023-06-01T05:58:41;8.32;;;3.15;;
51764;SDS011;37835;53.256;6.456;2023-06-01T06:01:08;6.75;;;2.63;;
51764;SDS011;37835;53.256;6.456;2023-06-01T06:03:34;7.05;;;2.47;;
51764;SDS011;37835;53.256;6.456;2023-06-01T06:06:00;4.85;;;2.22;;
51764;SDS011;37835;53.256;6.456;2023-06-01T06:08:25;4.95;;;2.63;;
51764;SDS011;37835;53.256;6.456;2023-06-01T06:10:52;7.38;;;2.47;;
51764;SDS011;37835;53.256;6.456;2023-06-01T06:13:18;7.22;;;2.70;;
51764;SDS011;37835;53.256;6.456;2023-06-01T06:15:44;8.45;;;2.63;;
51764;SDS011;37835;53.256;6.456;2023-06-01T06:18:09;10.20;;;2.92;;
51764;SDS011;37835;53.256;6.456;2023-06-01T06:20:35;7.70;;;2.95;;
51764;SDS011;37835;53.256;6.456;2023-06-01T06:23:01;8.57;;;2.90;;
51764;SDS011;37835;53.256;6.456;2023-06-01T06:25:26;9.38;;;2.65;;
51764;SDS011;37835;53.256;6.456;2023-06-01T06:27:52;7.10;;;2.60;;
51764;SDS011;37835;53.256;6.456;2023-06-01T06:30:17;8.63;;;2.65;;
51764;SDS011;37835;53.256;6.456;2023-06-01T06:32:43;9.23;;;2.40;;
51764;SDS011;37835;53.256;6.456;2023-06-01T06:35:09;6.03;;;2.20;;
51764;SDS011;37835;53.256;6.456;2023-06-01T06:37:38;6.88;;;2.10;;
51764;SDS011;37835;53.256;6.456;2023-06-01T06:40:08;6.95;;;2.35;;
51764;SDS011;37835;53.256;6.456;2023-06-01T06:42:34;4.47;;;2.10;;
51764;SDS011;37835;53.256;6.456;2023-06-01T06:45:00;4.95;;;2.03;;
51764;SDS011;37835;53.256;6.456;2023-06-01T06:47:26;3.30;;;1.50;;
51764;SDS011;37835;53.256;6.456;2023-06-01T06:49:52;3.60;;;1.38;;
51764;SDS011;37835;53.256;6.456;2023-06-01T06:52:18;1.50;;;1.08;;
51764;SDS011;37835;53.256;6.456;2023-06-01T06:54:43;1.88;;;1.10;;
51764;SDS011;37835;53.256;6.456;2023-06-01T06:57:09;8.05;;;1.65;;
51764;SDS011;37835;53.256;6.456;2023-06-01T06:59:35;2.28;;;1.10;;
51764;SDS011;37835;53.256;6.456;2023-06-01T07:02:01;2.70;;;1.15;;
51764;SDS011;37835;53.256;6.456;2023-06-01T07:04:28;3.95;;;1.40;;
51764;SDS011;37835;53.256;6.456;2023-06-01T07:06:54;2.30;;;1.30;;
51764;SDS011;37835;53.256;6.456;2023-06-01T07:09:20;8.18;;;2.00;;
51764;SDS011;37835;53.256;6.456;2023-06-01T07:11:46;10.07;;;3.38;;
51764;SDS011;37835;53.256;6.456;2023-06-01T07:14:12;10.07;;;3.38;;
51764;SDS011;37835;53.256;6.456;2023-06-01T07:16:39;8.02;;;3.10;;
51764;SDS011;37835;53.256;6.456;2023-06-01T07:19:04;7.10;;;2.60;;
51764;SDS011;37835;53.256;6.456;2023-06-01T07:21:30;7.00;;;2.95;;
51764;SDS011;37835;53.256;6.456;2023-06-01T07:23:56;11.88;;;3.97;;
51764;SDS011;37835;53.256;6.456;2023-06-01T07:26:21;5.90;;;2.75;;
51764;SDS011;37835;53.256;6.456;2023-06-01T07:28:51;4.05;;;2.20;;
51764;SDS011;37835;53.256;6.456;2023-06-01T07:31:19;4.68;;;2.22;;
51764;SDS011;37835;53.256;6.456;2023-06-01T07:33:45;6.43;;;1.77;;
51764;SDS011;37835;53.256;6.456;2023-06-01T07:36:11;5.05;;;1.77;;
51764;SDS011;37835;53.256;6.456;2023-06-01T07:38:37;3.45;;;1.63;;
51764;SDS011;37835;53.256;6.456;2023-06-01T07:41:02;6.63;;;1.77;;
51764;SDS011;37835;53.256;6.456;2023-06-01T07:43:28;7.05;;;2.13;;
51764;SDS011;37835;53.256;6.456;2023-06-01T07:45:54;4.43;;;1.70;;
51764;SDS011;37835;53.256;6.456;2023-06-01T07:48:20;4.65;;;1.85;;
51764;SDS011;37835;53.256;6.456;2023-06-01T07:50:46;7.50;;;1.92;;
51764;SDS011;37835;53.256;6.456;2023-06-01T07:53:11;5.95;;;1.40;;
51764;SDS011;37835;53.256;6.456;2023-06-01T07:55:38;6.90;;;1.80;;
51764;SDS011;37835;53.256;6.456;2023-06-01T07:58:04;5.93;;;1.58;;
51764;SDS011;37835;53.256;6.456;2023-06-01T08:00:30;3.20;;;1.35;;
51764;SDS011;37835;53.256;6.456;2023-06-01T08:02:56;3.42;;;1.75;;
51764;SDS011;37835;53.256;6.456;2023-06-01T08:05:24;5.28;;;1.50;;
51764;SDS011;37835;53.256;6.456;2023-06-01T08:07:49;3.80;;;1.77;;
51764;SDS011;37835;53.256;6.456;2023-06-01T08:10:15;7.13;;;2.15;;
51764;SDS011;37835;53.256;6.456;2023-06-01T08:12:41;7.03;;;2.08;;
51764;SDS011;37835;53.256;6.456;2023-06-01T08:15:09;10.73;;;3.10;;
51764;SDS011;37835;53.256;6.456;2023-06-01T08:17:36;8.90;;;3.20;;
51764;SDS011;37835;53.256;6.456;2023-06-01T08:20:02;12.63;;;3.67;;
51764;SDS011;37835;53.256;6.456;2023-06-01T08:22:34;13.25;;;4.18;;
51764;SDS011;37835;53.256;6.456;2023-06-01T08:25:00;10.82;;;3.67;;
51764;SDS011;37835;53.256;6.456;2023-06-01T08:27:25;14.85;;;4.75;;
51764;SDS011;37835;53.256;6.456;2023-06-01T08:29:53;14.32;;;4.30;;
51764;SDS011;37835;53.256;6.456;2023-06-01T08:32:18;14.00;;;3.85;;
51764;SDS011;37835;53.256;6.456;2023-06-01T08:34:44;13.52;;;4.78;;
51764;SDS011;37835;53.256;6.456;2023-06-01T08:37:11;10.35;;;3.65;;
51764;SDS011;37835;53.256;6.456;2023-06-01T08:39:38;20.80;;;3.95;;
51764;SDS011;37835;53.256;6.456;2023-06-01T08:42:15;14.70;;;3.83;;
51764;SDS011;37835;53.256;6.456;2023-06-01T08:44:50;12.98;;;3.70;;
51764;SDS011;37835;53.256;6.456;2023-06-01T08:47:18;14.65;;;3.13;;
51764;SDS011;37835;53.256;6.456;2023-06-01T08:49:45;11.70;;;3.35;;
51764;SDS011;37835;53.256;6.456;2023-06-01T08:52:12;15.88;;;3.28;;
51764;SDS011;37835;53.256;6.456;2023-06-01T08:54:39;15.23;;;3.10;;
51764;SDS011;37835;53.256;6.456;2023-06-01T08:57:05;11.15;;;2.88;;
51764;SDS011;37835;53.256;6.456;2023-06-01T08:59:33;14.75;;;2.90;;
51764;SDS011;37835;53.256;6.456;2023-06-01T09:02:00;11.85;;;3.00;;
51764;SDS011;37835;53.256;6.456;2023-06-01T09:04:26;13.25;;;2.78;;
51764;SDS011;37835;53.256;6.456;2023-06-01T09:06:52;14.23;;;2.88;;
51764;SDS011;37835;53.256;6.456;2023-06-01T09:09:17;15.05;;;2.97;;
51764;SDS011;37835;53.256;6.456;2023-06-01T09:11:43;12.82;;;3.38;;
51764;SDS011;37835;53.256;6.456;2023-06-01T09:14:21;13.93;;;3.35;;
51764;SDS011;37835;53.256;6.456;2023-06-01T09:16:48;12.32;;;2.80;;
51764;SDS011;37835;53.256;6.456;2023-06-01T09:19:15;15.68;;;2.90;;
51764;SDS011;37835;53.256;6.456;2023-06-01T09:21:55;17.35;;;3.05;;
51764;SDS011;37835;53.256;6.456;2023-06-01T09:24:24;13.55;;;3.05;;
51764;SDS011;37835;53.256;6.456;2023-06-01T09:26:51;15.13;;;3.17;;
51764;SDS011;37835;53.256;6.456;2023-06-01T09:29:23;10.85;;;2.80;;
51764;SDS011;37835;53.256;6.456;2023-06-01T09:31:49;5.60;;;2.38;;
51764;SDS011;37835;53.256;6.456;2023-06-01T09:34:18;10.30;;;3.08;;
51764;SDS011;37835;53.256;6.456;2023-06-01T09:36:52;11.57;;;2.50;;
51764;SDS011;37835;53.256;6.456;2023-06-01T09:39:19;12.55;;;3.33;;
51764;SDS011;37835;53.256;6.456;2023-06-01T09:41:55;7.22;;;2.30;;
51764;SDS011;37835;53.256;6.456;2023-06-01T09:46:54;3.30;;;1.92;;
51764;SDS011;37835;53.256;6.456;2023-06-01T09:49:25;14.73;;;2.73;;
51764;SDS011;37835;53.256;6.456;2023-06-01T09:54:33;8.80;;;2.85;;
51764;SDS011;37835;53.256;6.456;2023-06-01T09:57:02;14.35;;;2.78;;
51764;SDS011;37835;53.256;6.456;2023-06-01T09:59:29;13.25;;;3.13;;
51764;SDS011;37835;53.256;6.456;2023-06-01T10:01:56;9.20;;;2.60;;
51764;SDS011;37835;53.256;6.456;2023-06-01T10:04:24;9.98;;;2.90;;
51764;SDS011;37835;53.256;6.456;2023-06-01T10:06:52;10.55;;;2.65;;
51764;SDS011;37835;53.256;6.456;2023-06-01T10:09:20;11.40;;;2.60;;
51764;SDS011;37835;53.256;6.456;2023-06-01T10:11:48;12.85;;;3.15;;
51764;SDS011;37835;53.256;6.456;2023-06-01T10:14:17;11.05;;;2.85;;
51764;SDS011;37835;53.256;6.456;2023-06-01T10:16:43;8.57;;;2.72;;
51764;SDS011;37835;53.256;6.456;2023-06-01T10:19:09;10.20;;;2.63;;
51764;SDS011;37835;53.256;6.456;2023-06-01T10:21:36;10.77;;;3.17;;
51764;SDS011;37835;53.256;6.456;2023-06-01T10:24:03;11.93;;;3.38;;
51764;SDS011;37835;53.256;6.456;2023-06-01T10:26:29;9.48;;;2.58;;
51764;SDS011;37835;53.256;6.456;2023-06-01T10:28:57;17.33;;;2.72;;
51764;SDS011;37835;53.256;6.456;2023-06-01T10:31:34;5.40;;;2.15;;
51764;SDS011;37835;53.256;6.456;2023-06-01T10:34:01;10.90;;;2.90;;
51764;SDS011;37835;53.256;6.456;2023-06-01T10:39:33;12.57;;;3.38;;
51764;SDS011;37835;53.256;6.456;2023-06-01T10:57:35;8.38;;;2.65;;
51764;SDS011;37835;53.256;6.456;2023-06-01T11:08:01;7.53;;;2.55;;
51764;SDS011;37835;53.256;6.456;2023-06-01T11:13:34;8.75;;;2.60;;
51764;SDS011;37835;53.256;6.456;2023-06-01T11:21:34;10.98;;;3.60;;
51764;SDS011;37835;53.256;6.456;2023-06-01T11:24:09;14.35;;;3.10;;
51764;SDS011;37835;53.256;6.456;2023-06-01T11:29:12;11.30;;;3.60;;
51764;SDS011;37835;53.256;6.456;2023-06-01T11:31:39;12.70;;;3.30;;
51764;SDS011;37835;53.256;6.456;2023-06-01T11:34:37;11.13;;;2.78;;
51764;SDS011;37835;53.256;6.456;2023-06-01T11:37:06;7.90;;;2.60;;
51764;SDS011;37835;53.256;6.456;2023-06-01T11:39:41;8.02;;;3.00;;
51764;SDS011;37835;53.256;6.456;2023-06-01T11:44:39;8.70;;;2.67;;
51764;SDS011;37835;53.256;6.456;2023-06-01T11:47:07;5.80;;;2.38;;
51764;SDS011;37835;53.256;6.456;2023-06-01T11:49:43;6.68;;;2.15;;
51764;SDS011;37835;53.256;6.456;2023-06-01T11:52:12;9.73;;;2.53;;
51764;SDS011;37835;53.256;6.456;2023-06-01T11:54:38;7.70;;;2.63;;
51764;SDS011;37835;53.256;6.456;2023-06-01T11:57:04;8.27;;;2.80;;
51764;SDS011;37835;53.256;6.456;2023-06-01T11:59:42;7.00;;;2.67;;
51764;SDS011;37835;53.256;6.456;2023-06-01T12:02:30;6.97;;;2.30;;
51764;SDS011;37835;53.256;6.456;2023-06-01T12:04:59;8.48;;;2.25;;
51764;SDS011;37835;53.256;6.456;2023-06-01T12:07:43;12.60;;;2.90;;
51764;SDS011;37835;53.256;6.456;2023-06-01T12:10:19;11.00;;;3.97;;
51764;SDS011;37835;53.256;6.456;2023-06-01T12:12:45;7.80;;;3.03;;
51764;SDS011;37835;53.256;6.456;2023-06-01T12:15:15;6.25;;;2.75;;
51764;SDS011;37835;53.256;6.456;2023-06-01T12:22:53;5.55;;;1.98;;
51764;SDS011;37835;53.256;6.456;2023-06-01T12:25:21;8.05;;;2.70;;
51764;SDS011;37835;53.256;6.456;2023-06-01T12:30:46;9.65;;;2.65;;
51764;SDS011;37835;53.256;6.456;2023-06-01T12:36:03;9.55;;;3.45;;
51764;SDS011;37835;53.256;6.456;2023-06-01T12:38:37;15.18;;;2.88;;
51764;SDS011;37835;53.256;6.456;2023-06-01T12:41:16;6.00;;;2.42;;
51764;SDS011;37835;53.256;6.456;2023-06-01T12:43:46;11.63;;;2.97;;
51764;SDS011;37835;53.256;6.456;2023-06-01T12:46:23;13.88;;;3.03;;
51764;SDS011;37835;53.256;6.456;2023-06-01T12:48:53;8.80;;;2.60;;
51764;SDS011;37835;53.256;6.456;2023-06-01T12:51:36;11.93;;;2.92;;
51764;SDS011;37835;53.256;6.456;2023-06-01T12:54:02;8.88;;;3.33;;
51764;SDS011;37835;53.256;6.456;2023-06-01T12:56:28;11.98;;;3.42;;
51764;SDS011;37835;53.256;6.456;2023-06-01T12:58:53;9.02;;;2.75;;
51764;SDS011;37835;53.256;6.456;2023-06-01T13:01:19;16.80;;;3.28;;
51764;SDS011;37835;53.256;6.456;2023-06-01T13:03:45;12.45;;;2.65;;
51764;SDS011;37835;53.256;6.456;2023-06-01T13:06:10;10.40;;;3.28;;
51764;SDS011;37835;53.256;6.456;2023-06-01T13:08:37;9.02;;;3.28;;
51764;SDS011;37835;53.256;6.456;2023-06-01T13:11:03;10.10;;;2.45;;
51764;SDS011;37835;53.256;6.456;2023-06-01T13:13:28;8.68;;;2.67;;
51764;SDS011;37835;53.256;6.456;2023-06-01T13:15:54;10.57;;;2.80;;
51764;SDS011;37835;53.256;6.456;2023-06-01T13:18:20;7.35;;;2.58;;
51764;SDS011;37835;53.256;6.456;2023-06-01T13:20:46;9.55;;;2.63;;
51764;SDS011;37835;53.256;6.456;2023-06-01T13:23:12;6.90;;;2.85;;
51764;SDS011;37835;53.256;6.456;2023-06-01T13:25:38;13.90;;;3.17;;
51764;SDS011;37835;53.256;6.456;2023-06-01T13:28:04;7.80;;;2.50;;
51764;SDS011;37835;53.256;6.456;2023-06-01T13:30:32;8.32;;;2.50;;
51764;SDS011;37835;53.256;6.456;2023-06-01T13:32:58;9.52;;;2.13;;
51764;SDS011;37835;53.256;6.456;2023-06-01T13:35:24;9.93;;;2.63;;
51764;SDS011;37835;53.256;6.456;2023-06-01T13:37:50;7.78;;;2.47;;
51764;SDS011;37835;53.256;6.456;2023-06-01T13:40:16;8.07;;;2.63;;
51764;SDS011;37835;53.256;6.456;2023-06-01T13:42:48;8.13;;;2.38;;
51764;SDS011;37835;53.256;6.456;2023-06-01T13:45:15;12.90;;;2.97;;
51764;SDS011;37835;53.256;6.456;2023-06-01T13:47:42;10.20;;;2.60;;
51764;SDS011;37835;53.256;6.456;2023-06-01T13:50:07;11.45;;;2.60;;
51764;SDS011;37835;53.256;6.456;2023-06-01T13:52:33;11.00;;;2.22;;
51764;SDS011;37835;53.256;6.456;2023-06-01T13:54:59;7.50;;;2.50;;
51764;SDS011;37835;53.256;6.456;2023-06-01T13:57:24;12.82;;;2.22;;
51764;SDS011;37835;53.256;6.456;2023-06-01T13:59:50;7.22;;;2.25;;
51764;SDS011;37835;53.256;6.456;2023-06-01T14:02:15;13.38;;;2.55;;
51764;SDS011;37835;53.256;6.456;2023-06-01T14:04:41;7.18;;;2.00;;
51764;SDS011;37835;53.256;6.456;2023-06-01T14:07:06;8.50;;;1.60;;
51764;SDS011;37835;53.256;6.456;2023-06-01T14:09:32;12.27;;;2.08;;
51764;SDS011;37835;53.256;6.456;2023-06-01T14:11:57;9.68;;;2.25;;
51764;SDS011;37835;53.256;6.456;2023-06-01T14:14:23;11.93;;;2.33;;
51764;SDS011;37835;53.256;6.456;2023-06-01T14:16:48;7.40;;;1.55;;
51764;SDS011;37835;53.256;6.456;2023-06-01T14:19:14;6.13;;;1.30;;
51764;SDS011;37835;53.256;6.456;2023-06-01T14:21:40;8.98;;;2.40;;
51764;SDS011;37835;53.256;6.456;2023-06-01T14:24:05;8.32;;;2.38;;
51764;SDS011;37835;53.256;6.456;2023-06-01T14:26:31;6.43;;;1.60;;
51764;SDS011;37835;53.256;6.456;2023-06-01T14:28:57;5.07;;;1.83;;
51764;SDS011;37835;53.256;6.456;2023-06-01T14:31:22;6.18;;;1.60;;
51764;SDS011;37835;53.256;6.456;2023-06-01T14:33:48;7.88;;;1.85;;
51764;SDS011;37835;53.256;6.456;2023-06-01T14:36:14;5.95;;;1.40;;
51764;SDS011;37835;53.256;6.456;2023-06-01T14:38:40;9.45;;;1.70;;
51764;SDS011;37835;53.256;6.456;2023-06-01T14:41:06;6.78;;;1.27;;
51764;SDS011;37835;53.256;6.456;2023-06-01T14:43:32;3.83;;;1.13;;
51764;SDS011;37835;53.256;6.456;2023-06-01T14:45:58;8.55;;;1.65;;
51764;SDS011;37835;53.256;6.456;2023-06-01T14:48:24;4.32;;;1.40;;
51764;SDS011;37835;53.256;6.456;2023-06-01T14:50:50;5.80;;;1.30;;
51764;SDS011;37835;53.256;6.456;2023-06-01T14:53:16;5.25;;;1.50;;
51764;SDS011;37835;53.256;6.456;2023-06-01T14:55:41;6.93;;;1.48;;
51764;SDS011;37835;53.256;6.456;2023-06-01T14:58:07;6.45;;;1.50;;
51764;SDS011;37835;53.256;6.456;2023-06-01T15:00:34;6.82;;;1.45;;
51764;SDS011;37835;53.256;6.456;2023-06-01T15:03:01;3.65;;;0.90;;
51764;SDS011;37835;53.256;6.456;2023-06-01T15:05:26;4.18;;;1.75;;
51764;SDS011;37835;53.256;6.456;2023-06-01T15:07:52;5.88;;;1.25;;
51764;SDS011;37835;53.256;6.456;2023-06-01T15:10:18;1.77;;;0.80;;
51764;SDS011;37835;53.256;6.456;2023-06-01T15:12:43;2.63;;;1.10;;
51764;SDS011;37835;53.256;6.456;2023-06-01T15:15:09;6.05;;;1.00;;
51764;SDS011;37835;53.256;6.456;2023-06-01T15:17:35;6.57;;;1.35;;
51764;SDS011;37835;53.256;6.456;2023-06-01T15:20:00;3.72;;;0.93;;
51764;SDS011;37835;53.256;6.456;2023-06-01T15:22:26;3.33;;;1.02;;
51764;SDS011;37835;53.256;6.456;2023-06-01T15:24:52;3.80;;;1.02;;
51764;SDS011;37835;53.256;6.456;2023-06-01T15:27:17;4.32;;;0.90;;
51764;SDS011;37835;53.256;6.456;2023-06-01T15:29:44;5.40;;;1.13;;
51764;SDS011;37835;53.256;6.456;2023-06-01T15:32:10;4.45;;;1.00;;
51764;SDS011;37835;53.256;6.456;2023-06-01T15:34:35;6.32;;;1.25;;
51764;SDS011;37835;53.256;6.456;2023-06-01T15:37:06;5.05;;;1.35;;
51764;SDS011;37835;53.256;6.456;2023-06-01T15:39:35;4.00;;;0.90;;
51764;SDS011;37835;53.256;6.456;2023-06-01T15:42:08;4.80;;;0.90;;
51764;SDS011;37835;53.256;6.456;2023-06-01T15:44:38;6.75;;;1.67;;
51764;SDS011;37835;53.256;6.456;2023-06-01T15:47:05;2.78;;;1.02;;
51764;SDS011;37835;53.256;6.456;2023-06-01T15:49:31;6.18;;;1.27;;
51764;SDS011;37835;53.256;6.456;2023-06-01T15:51:57;15.32;;;1.40;;